Currently 47°F in Riverside (Orangecrest), California, USA
47°F
47°F / 44°F
6 mph SW
0.02"
Thursday, April 9, 2020 9:11 AM PDT

Riverside (Orangecrest), California Weather Summary
Last 36 Hours

Temperature Winds Hourly Humidity Dewpoint
Time Report Norm Report Norm Max Gusts Precip. Rpt. Norm Rpt. Norm Pressure
1Thu 09:11 AM  46.9°F  59°F  6 mph SW  3 mph  13 mph  0.00"  84%  56%  42°F  43°F  30.17"
2Thu 09:10 AM  47.1°F  59°F  6 mph SW  3 mph  13 mph  ----  84%  56%  42°F  43°F  30.17"
Thu 09:00 AM  46.5°F  58°F  7 mph SW  3 mph  11 mph  0.00"  85%  57%  42°F  43°F  30.17"
Thu 08:00 AM  44.6°F  55°F  5 mph SW  3 mph  9 mph  0.01"  92%  64%  42°F  42°F  30.16"
Thu 07:00 AM  43.9°F  53°F  5 mph SW  3 mph  10 mph  0.00"  93%  68%  42°F  42°F  30.15"
3Thu 06:57 AM  43.6°F  53°F  6 mph SW  2 mph  9 mph  ----  93%  68%  42°F  42°F  30.15"
Thu 06:00 AM  44.3°F  53°F  4 mph SW  2 mph  10 mph  0.01"  91%  69%  42°F  42°F  30.15"
Thu 05:00 AM  44.6°F  53°F  5 mph SW  2 mph  8 mph  0.00"  90%  68%  42°F  43°F  30.12"
Thu 04:00 AM  44.7°F  54°F  4 mph W  3 mph  8 mph  0.00"  88%  67%  41°F  43°F  30.13"
Thu 03:00 AM  44.8°F  55°F  3 mph W  2 mph  8 mph  0.00"  90%  66%  42°F  43°F  30.13"
Thu 02:00 AM  44.6°F  55°F  4 mph SW  2 mph  9 mph  0.00"  90%  64%  42°F  43°F  30.14"
Thu 01:00 AM  44.7°F  56°F  5 mph SW  3 mph  7 mph  0.00"  88%  63%  41°F  43°F  30.14"
Thu 12:00 AM  44.9°F  57°F  3 mph SW  3 mph  9 mph  0.00"  87%  62%  41°F  43°F  30.15"
Wed 11:00 PM  44.8°F  57°F  5 mph SW  3 mph  8 mph  0.00"  87%  61%  41°F  44°F  30.14"
Wed 10:00 PM  47.6°F  58°F  3 mph SW  3 mph  9 mph  0.00"  73%  58%  39°F  43°F  30.14"
Wed 09:00 PM  48.3°F  60°F  5 mph W  4 mph  6 mph  0.00"  73%  56%  40°F  43°F  30.12"
Wed 08:00 PM  48.9°F  61°F  calm  5 mph  9 mph  0.00"  72%  52%  40°F  43°F  30.10"
Wed 07:00 PM  51.6°F  64°F  3 mph SW  6 mph  11 mph  0.00"  55%  45%  35°F  42°F  30.07"
Wed 06:00 PM  54.0°F  68°F  7 mph SW  6 mph  11 mph  0.00"  48%  41%  34°F  42°F  30.05"
Wed 05:00 PM  51.0°F  70°F  4 mph SW  7 mph  13 mph  0.00"  72%  37%  42°F  41°F  30.03"
Wed 04:00 PM  50.2°F  71°F  6 mph SW  6 mph  12 mph  0.00"  73%  34%  42°F  40°F  30.04"
Wed 03:00 PM  50.0°F  71°F  7 mph SW  6 mph  11 mph  0.00"  76%  34%  42°F  40°F  30.04"
Wed 02:00 PM  53.3°F  70°F  4 mph SW  5 mph  14 mph  0.00"  58%  34%  38°F  39°F  30.04"
Wed 01:00 PM  53.0°F  69°F  1 mph SW  5 mph  11 mph  0.00"  65%  36%  41°F  39°F  30.04"
Wed 12:00 PM  50.1°F  67°F  5 mph SW  5 mph  11 mph  0.00"  75%  38%  42°F  40°F  30.05"
Wed 11:00 AM  48.3°F  65°F  4 mph SW  4 mph  10 mph  0.00"  85%  43%  44°F  41°F  30.04"
Wed 10:00 AM  46.7°F  62°F  6 mph SW  3 mph  11 mph  0.00"  91%  50%  44°F  42°F  30.03"
Wed 09:00 AM  45.2°F  58°F  5 mph SW  3 mph  9 mph  0.04"  94%  60%  43°F  44°F  30.02"
Wed 08:00 AM  44.4°F  55°F  4 mph SW  3 mph  10 mph  0.06"  94%  67%  43°F  43°F  30.01"
Wed 07:00 AM  44.7°F  53°F  7 mph SW  2 mph  11 mph  0.19"  94%  71%  43°F  43°F  29.99"
Wed 06:00 AM  45.7°F  52°F  1 mph SW  2 mph  5 mph  0.04"  94%  72%  44°F  43°F  29.97"
Wed 05:00 AM  46.7°F  53°F  2 mph SW  2 mph  7 mph  0.03"  93%  71%  45°F  44°F  29.98"
Wed 04:00 AM  46.2°F  54°F  3 mph SW  3 mph  6 mph  0.05"  93%  70%  44°F  44°F  29.98"
Wed 03:00 AM  47.9°F  55°F  2 mph SW  3 mph  7 mph  0.01"  92%  68%  46°F  44°F  30.00"
Wed 02:00 AM  47.8°F  55°F  4 mph SW  2 mph  7 mph  0.02"  92%  67%  46°F  44°F  30.02"
Wed 01:00 AM  48.2°F  56°F  calm  3 mph  8 mph  0.00"  90%  65%  45°F  44°F  30.04"
Wed 12:00 AM  48.5°F  56°F  4 mph SW  3 mph  11 mph  0.00"  88%  64%  45°F  44°F  30.06"
Tue 11:00 PM  48.2°F  57°F  7 mph SW  3 mph  18 mph  0.00"  88%  63%  45°F  44°F  30.06"
Tue 10:00 PM  48.1°F  58°F  11 mph SW  2 mph  23 mph  0.00"  85%  60%  44°F  44°F  30.06"

  1. Current weather data. No green row appears if the current weather data is also the high or low for the current day.
  2. High temperature for the current day.
  3. Low temperature for the current day.

The Riverside (Orangecrest), California weather pages are a service of WeatherCurrents.
Copyright ©2020  WeatherCurrents. All rights reserved. - Submit questions and comments - Privacy Policy

This page automatically refreshes every 10 minutes.